METAR rapporten vliegvelden

   
EHVK - Volkel Rnlafb, Netherlands
Afstand tot: ZW 18 km
Gewijzigd: 19-07-2019 14:25
Bewolking  
Bewolking  
   Wind: ZW 13 km/h
Wind: ZW 13 km/h
Temperatuur: 25°C
Dauwpunt: 12°C
Vochtigheid: 44%
Barometer: 1013 hPa
Bewolking: Bewolking
Zicht: meer dan 10 km
Bewolking: Grotendeels bewolkt 5700 ft,
Grotendeels bewolkt 6300 ft,
Bewolking 14000 ft
EHVK 191225Z AUTO 22007KT 180V290 9999 BKN057 BKN063 OVC140 25/12 Q1013 BLU 23005KT 9999 SCT030 SCT250
EDLV - Niederrhein, Germany
Afstand tot: ZO 25 km
Gewijzigd: 19-07-2019 14:20
Helder  
Helder  
   Wind: WNW 13 km/h
Wind: WNW 13 km/h
Temperatuur: 23°C
Dauwpunt: 12°C
Vochtigheid: 50%
Barometer: 1014 hPa
Zicht: meer dan 10 km
Bewolking: Helder
EDLV 191220Z 29007KT 250V350 CAVOK 23/12 Q1014
EHDL - Deelen Rnlafb, Netherlands
Afstand tot: N 35 km
Gewijzigd: 19-07-2019 14:25
Bewolking  
Bewolking  
   Wind: Westen 11.1 km/h
Wind: Westen 11.1 km/h
Temperatuur: 23°C
Dauwpunt: 9°C
Vochtigheid: 41%
Barometer: 1013 hPa
Bewolking: Bewolking
Zicht: meer dan 10 km
Bewolking: Gedeeltelijk bewolkt 5200 ft,
Bewolking 16000 ft
EHDL 191225Z AUTO 27006KT 180V350 9999 SCT052 OVC160 23/09 Q1013 BLU
EHEH - Eindhoven Rnlafb, Netherlands
Afstand tot: ZW 48 km
Gewijzigd: 19-07-2019 14:25
Bewolking  
Bewolking  
   Wind: ZW 14.8 km/h
Wind: ZW 14.8 km/h
Temperatuur: 24°C
Dauwpunt: 12°C
Vochtigheid: 47%
Barometer: 1014 hPa
Bewolking: Bewolking
Zicht: meer dan 10 km
Bewolking: Bewolking 11000 ft
EHEH 191225Z AUTO 23008KT 160V270 9999 OVC110 24/12 Q1014 BLU 23006KT 9999 SCT040
EHGR - Gilze-Rijen Rnla, Netherlands
Afstand tot: WZW 70 km
Gewijzigd: 19-07-2019 14:25
Bewolking  
Bewolking  
   Wind: ZW 13 km/h
Wind: ZW 13 km/h
Temperatuur: 24°C
Dauwpunt: 13°C
Vochtigheid: 50%
Barometer: 1013 hPa
Bewolking: Bewolking
Zicht: meer dan 10 km
Bewolking: Licht bewolkt 4200 ft,
Gedeeltelijk bewolkt 5900 ft,
Bewolking 13000 ft
EHGR 191225Z AUTO 22007KT 160V270 9999 FEW042 SCT059 OVC130 24/13 Q1013 BLU 21006KT 9999 SCT042
EBBL - Kleine-Brogel(Ba, Belgium
Afstand tot: ZZW 71 km
Gewijzigd: 19-07-2019 14:25
Grotendeels bewolkt  
Grotendeels bewolkt  
   Wind: ZW 11.1 km/h
Wind: ZW 11.1 km/h
Temperatuur: 23°C
Dauwpunt: 12°C
Vochtigheid: 50%
Barometer: 1014 hPa
Bewolking: Grotendeels bewolkt
Zicht: meer dan 10 km
Bewolking: Licht bewolkt 4300 ft,
Grotendeels bewolkt 17000 ft
EBBL 191225Z 23006KT 9999 FEW043 BKN170 23/12 Q1014 BLU BLU

Script ontwikkeld door  Saratoga-weather.org Aangepast voor de template door  Weerstation Leuven